Abraham, Utah
Current Conditions -  °F | °C
As of 11:15 AM on Thursday 18 Dec 2014 (Local Time) from KDTA Reporting Station
Clear Clear  
Wind Chill: 34°   Ceiling: Unl
Heat Index: 37°   Visibility: 10mi
Dew Point: 33°   Wind: 5mph
Humidity: 85%   Direction: 170°S
Pressure: 30.17"   Gusts: NA
Location:  39.4463°N, 112.85°W
Report Text: KDTA 181815Z AUTO 17004KT 10SM CLR 03/01 A3017 RMK AO1 T00290006
Loading
Personal Weather Stations






























Interactive Weather Map New forecast layout! Learn more

10-Day Weather Forecast

Advertisements
Track Severe Weather on mobile